createdAt,value
2023-09-16T00:01:54.241Z,15.90
2023-09-16T00:04:24.701Z,15.90
2023-09-16T00:06:51.670Z,15.90
2023-09-16T00:09:18.477Z,15.90
2023-09-16T00:11:45.201Z,15.80
2023-09-16T00:14:11.870Z,15.90
2023-09-16T00:16:38.620Z,15.80
2023-09-16T00:19:06.030Z,15.70
2023-09-16T00:21:33.387Z,15.70
2023-09-16T00:24:00.637Z,15.60
2023-09-16T00:26:28.269Z,15.50
2023-09-16T00:28:54.953Z,15.50
2023-09-16T00:31:22.415Z,15.40
2023-09-16T00:33:50.415Z,15.40
2023-09-16T00:36:17.388Z,15.40
2023-09-16T00:38:44.404Z,15.40
2023-09-16T00:41:13.500Z,15.40
2023-09-16T00:43:40.316Z,15.40
2023-09-16T00:46:07.091Z,15.30
2023-09-16T00:48:34.930Z,15.20
2023-09-16T00:51:01.744Z,15.10
2023-09-16T00:53:28.582Z,15.10
2023-09-16T00:55:55.389Z,15.10
2023-09-16T00:58:22.243Z,15.00
2023-09-16T01:00:49.468Z,14.80
2023-09-16T01:03:17.518Z,14.60
2023-09-16T01:05:48.569Z,14.60
2023-09-16T01:08:16.554Z,14.60
2023-09-16T01:10:43.730Z,14.50
2023-09-16T01:13:11.004Z,14.50
2023-09-16T01:15:47.427Z,14.30
2023-09-16T01:18:17.179Z,14.30
2023-09-16T01:20:44.389Z,14.20
2023-09-16T01:23:11.364Z,14.20
2023-09-16T01:25:38.339Z,14.20
2023-09-16T01:28:05.887Z,14.20
2023-09-16T01:30:37.442Z,14.20
2023-09-16T01:33:13.310Z,14.20
2023-09-16T01:35:41.860Z,14.30
2023-09-16T01:38:09.260Z,14.30
2023-09-16T01:40:37.394Z,14.40
2023-09-16T01:43:05.332Z,14.40
2023-09-16T01:45:42.800Z,14.40
2023-09-16T01:48:09.737Z,14.40
2023-09-16T01:50:36.705Z,14.50
2023-09-16T01:53:03.833Z,14.60
2023-09-16T01:55:31.985Z,14.70
2023-09-16T01:57:59.319Z,14.60
2023-09-16T02:00:26.189Z,14.70
2023-09-16T02:02:53.170Z,14.60
2023-09-16T02:05:20.391Z,14.60
2023-09-16T02:07:47.252Z,14.60
2023-09-16T02:10:14.050Z,14.50
2023-09-16T02:12:42.413Z,14.60
2023-09-16T02:15:10.930Z,14.60
2023-09-16T02:17:40.675Z,14.50
2023-09-16T02:20:11.739Z,14.30
2023-09-16T02:22:38.747Z,14.20
2023-09-16T02:25:05.946Z,14.30
2023-09-16T02:27:33.639Z,14.30
2023-09-16T02:30:00.509Z,14.20
2023-09-16T02:32:27.325Z,14.10
2023-09-16T02:34:54.025Z,14.10
2023-09-16T02:37:21.517Z,14.00
2023-09-16T02:39:48.447Z,14.00
2023-09-16T02:42:15.380Z,13.90
2023-09-16T02:44:42.158Z,13.90
2023-09-16T02:47:08.916Z,13.80
2023-09-16T02:49:35.753Z,13.70
2023-09-16T02:52:02.585Z,13.70
2023-09-16T02:54:29.391Z,13.70
2023-09-16T02:56:56.089Z,13.80
2023-09-16T02:59:22.802Z,13.80
2023-09-16T03:01:49.542Z,13.60
2023-09-16T03:04:16.324Z,13.60
2023-09-16T03:06:43.083Z,13.60
2023-09-16T03:09:09.851Z,13.60
2023-09-16T03:11:39.635Z,13.70
2023-09-16T03:14:06.342Z,13.80
2023-09-16T03:16:33.409Z,13.80
2023-09-16T03:19:00.332Z,13.80
2023-09-16T03:21:28.829Z,13.80
2023-09-16T03:23:55.798Z,13.80
2023-09-16T03:26:22.661Z,13.70
2023-09-16T03:28:49.694Z,13.70
2023-09-16T03:31:17.118Z,13.70
2023-09-16T03:33:44.217Z,13.70
2023-09-16T03:36:11.144Z,13.80
2023-09-16T03:38:51.118Z,13.90
2023-09-16T03:41:18.652Z,13.90
2023-09-16T03:43:47.795Z,14.00
2023-09-16T03:46:16.377Z,14.00
2023-09-16T03:48:43.091Z,14.00
2023-09-16T03:51:10.519Z,14.10
2023-09-16T03:53:41.132Z,14.10
2023-09-16T03:56:09.991Z,14.00
2023-09-16T03:58:37.421Z,14.10
2023-09-16T04:01:04.459Z,13.90
2023-09-16T04:03:35.497Z,13.80
2023-09-16T04:06:04.882Z,13.80
2023-09-16T04:08:41.182Z,13.80
2023-09-16T04:11:10.118Z,13.80
2023-09-16T04:13:37.056Z,13.80
2023-09-16T04:16:03.824Z,13.70
2023-09-16T04:18:31.326Z,13.70
2023-09-16T04:20:58.320Z,13.60
2023-09-16T04:23:25.765Z,13.60
2023-09-16T04:25:59.287Z,13.60
2023-09-16T04:28:26.202Z,13.60
2023-09-16T04:30:53.436Z,13.60
2023-09-16T04:33:21.021Z,13.50
2023-09-16T04:35:49.243Z,13.50
2023-09-16T04:38:17.246Z,13.50
2023-09-16T04:40:44.846Z,13.50
2023-09-16T04:43:14.798Z,13.50
2023-09-16T04:45:45.931Z,13.50
2023-09-16T04:48:17.046Z,13.50
2023-09-16T04:50:44.770Z,13.50
2023-09-16T04:53:11.490Z,13.50
2023-09-16T04:55:38.731Z,13.60
2023-09-16T04:58:05.723Z,13.60
2023-09-16T05:00:34.625Z,13.60
2023-09-16T05:03:02.117Z,13.50
2023-09-16T05:05:28.915Z,13.50
2023-09-16T05:07:56.082Z,13.40
2023-09-16T05:10:22.884Z,13.40
2023-09-16T05:12:49.617Z,13.50
2023-09-16T05:15:16.401Z,13.50
2023-09-16T05:17:43.180Z,13.60
2023-09-16T05:20:10.290Z,13.50
2023-09-16T05:22:37.150Z,13.50
2023-09-16T05:25:07.618Z,13.50
2023-09-16T05:27:34.427Z,13.50
2023-09-16T05:30:03.213Z,13.50
2023-09-16T05:32:31.083Z,13.40
2023-09-16T05:34:58.328Z,13.50
2023-09-16T05:37:25.375Z,13.40
2023-09-16T05:39:52.167Z,13.50
2023-09-16T05:42:18.921Z,13.50
2023-09-16T05:44:45.767Z,13.50
2023-09-16T05:47:12.657Z,13.60
2023-09-16T05:49:39.486Z,13.70
2023-09-16T05:52:06.484Z,13.80
2023-09-16T05:54:33.273Z,13.80
2023-09-16T05:56:59.956Z,14.00
2023-09-16T05:59:26.699Z,14.00
2023-09-16T06:01:53.434Z,14.30
2023-09-16T06:04:20.380Z,14.50
2023-09-16T06:06:52.591Z,14.90
2023-09-16T06:09:19.341Z,15.20
2023-09-16T06:11:46.030Z,15.30
2023-09-16T06:14:12.792Z,15.40
2023-09-16T06:16:39.695Z,15.50
2023-09-16T06:19:06.574Z,15.90
2023-09-16T06:21:33.556Z,16.20
2023-09-16T06:24:00.661Z,16.60
2023-09-16T06:26:27.815Z,16.80
2023-09-16T06:28:54.664Z,16.90
2023-09-16T06:31:21.542Z,17.10
2023-09-16T06:33:50.306Z,17.40
2023-09-16T06:36:19.214Z,17.30
2023-09-16T06:38:46.050Z,17.50
2023-09-16T06:41:12.772Z,17.20
2023-09-16T06:43:39.485Z,17.10
2023-09-16T06:46:06.812Z,17.70
2023-09-16T06:48:33.688Z,17.80
2023-09-16T06:51:00.454Z,17.60
2023-09-16T06:53:28.032Z,17.50
2023-09-16T06:55:54.822Z,17.60
2023-09-16T06:58:22.372Z,17.90
2023-09-16T07:00:52.339Z,18.40
2023-09-16T07:03:20.147Z,19.10
2023-09-16T07:05:47.881Z,18.90
2023-09-16T07:08:19.373Z,18.80
2023-09-16T07:10:46.146Z,19.00
2023-09-16T07:13:12.857Z,19.00
2023-09-16T07:15:39.780Z,19.10
2023-09-16T07:18:06.678Z,19.30
2023-09-16T07:20:33.476Z,19.30
2023-09-16T07:23:00.237Z,19.40
2023-09-16T07:25:27.150Z,19.50
2023-09-16T07:27:56.017Z,19.80
2023-09-16T07:30:23.534Z,19.60
2023-09-16T07:32:51.416Z,19.60
2023-09-16T07:35:18.559Z,19.50
2023-09-16T07:37:45.426Z,19.70
2023-09-16T07:40:12.765Z,20.30
2023-09-16T07:42:39.821Z,20.60
2023-09-16T07:45:07.172Z,20.50
2023-09-16T07:47:34.064Z,20.40
2023-09-16T07:50:01.631Z,20.50
2023-09-16T07:52:29.139Z,20.50
2023-09-16T07:55:00.257Z,20.70
2023-09-16T07:57:29.301Z,21.50
2023-09-16T07:59:56.212Z,21.60
2023-09-16T08:02:23.054Z,21.50
2023-09-16T08:04:50.011Z,21.60
2023-09-16T08:07:16.915Z,21.50
2023-09-16T08:09:43.766Z,21.50
2023-09-16T08:12:10.520Z,21.60
2023-09-16T08:14:37.227Z,22.00
2023-09-16T08:17:04.696Z,21.90
2023-09-16T08:19:32.352Z,21.50
2023-09-16T08:21:59.604Z,21.90
2023-09-16T08:24:26.602Z,22.10
2023-09-16T08:26:53.440Z,22.00
2023-09-16T08:29:20.282Z,22.10
2023-09-16T08:31:49.808Z,22.70
2023-09-16T08:34:16.582Z,22.50
2023-09-16T08:36:43.435Z,22.70
2023-09-16T08:39:10.827Z,22.70
2023-09-16T08:41:50.705Z,22.60
2023-09-16T08:44:20.755Z,22.90
2023-09-16T08:46:58.556Z,23.00
2023-09-16T08:49:28.439Z,23.30
2023-09-16T08:51:57.492Z,23.20
2023-09-16T08:54:25.058Z,23.60
2023-09-16T08:56:51.830Z,23.60
2023-09-16T08:59:19.725Z,23.60
2023-09-16T09:01:47.252Z,23.10
2023-09-16T09:04:15.765Z,23.00
2023-09-16T09:06:42.924Z,23.30
2023-09-16T09:09:09.780Z,23.60
2023-09-16T09:11:37.439Z,23.60
2023-09-16T09:14:04.788Z,24.10
2023-09-16T09:16:34.163Z,24.00
2023-09-16T09:19:02.975Z,24.00
2023-09-16T09:21:30.752Z,23.90
2023-09-16T09:23:59.196Z,24.40
2023-09-16T09:26:26.054Z,23.90
2023-09-16T09:28:53.025Z,23.80
2023-09-16T09:31:20.498Z,23.90
2023-09-16T09:33:49.455Z,23.80
2023-09-16T09:36:17.910Z,24.00
2023-09-16T09:38:46.197Z,24.50
2023-09-16T09:41:14.187Z,24.20
2023-09-16T09:43:41.099Z,24.40
2023-09-16T09:46:08.155Z,24.20
2023-09-16T09:48:37.941Z,23.60
2023-09-16T09:51:07.540Z,24.20
2023-09-16T09:53:35.107Z,23.90
2023-09-16T09:56:01.980Z,24.30
2023-09-16T09:58:29.961Z,24.10
2023-09-16T10:00:56.793Z,24.20
2023-09-16T10:03:24.484Z,24.40
2023-09-16T10:05:51.643Z,24.70
2023-09-16T10:08:18.405Z,24.60
2023-09-16T10:10:48.130Z,25.00
2023-09-16T10:13:17.141Z,24.50
2023-09-16T10:15:44.466Z,24.70
2023-09-16T10:18:11.961Z,25.10
2023-09-16T10:20:43.019Z,25.50
2023-09-16T10:23:09.908Z,25.30
2023-09-16T10:25:39.658Z,25.00
2023-09-16T10:28:09.281Z,25.20
2023-09-16T10:30:37.387Z,25.00
2023-09-16T10:33:06.826Z,25.10
2023-09-16T10:35:38.301Z,24.90
2023-09-16T10:38:07.423Z,24.70
2023-09-16T10:40:34.558Z,25.20
2023-09-16T10:43:05.394Z,25.50
2023-09-16T10:45:35.288Z,25.40
2023-09-16T10:48:03.228Z,25.10
2023-09-16T10:50:37.148Z,25.10
2023-09-16T10:53:11.964Z,25.00
2023-09-16T10:55:59.585Z,24.70
2023-09-16T10:58:49.817Z,24.60
2023-09-16T11:01:29.381Z,24.60
2023-09-16T11:04:02.335Z,24.70
2023-09-16T11:06:29.254Z,24.60
2023-09-16T11:08:56.567Z,24.50
2023-09-16T11:11:23.506Z,24.50
2023-09-16T11:13:51.329Z,24.60
2023-09-16T11:16:21.539Z,24.40
2023-09-16T11:18:55.379Z,24.30
2023-09-16T11:21:23.051Z,24.30
2023-09-16T11:23:51.036Z,24.30
2023-09-16T11:26:23.996Z,24.50
2023-09-16T11:28:54.502Z,24.30
2023-09-16T11:31:21.279Z,24.30
2023-09-16T11:33:48.049Z,24.40
2023-09-16T11:36:19.839Z,24.50
2023-09-16T11:38:57.098Z,24.50
2023-09-16T11:41:23.876Z,24.70
2023-09-16T11:43:50.741Z,24.70
2023-09-16T11:46:17.864Z,24.60
2023-09-16T11:48:48.579Z,24.50
2023-09-16T11:51:16.022Z,24.50
2023-09-16T11:53:42.953Z,24.70
2023-09-16T11:56:11.146Z,24.80
2023-09-16T11:58:39.024Z,24.90
2023-09-16T12:01:05.853Z,24.90
2023-09-16T12:03:32.666Z,24.70
2023-09-16T12:05:59.715Z,24.90
2023-09-16T12:08:26.524Z,25.00
2023-09-16T12:10:54.522Z,25.00
2023-09-16T12:13:28.991Z,25.10
2023-09-16T12:15:55.915Z,25.10
2023-09-16T12:18:22.908Z,25.20
2023-09-16T12:20:49.735Z,25.00
2023-09-16T12:23:17.680Z,25.00
2023-09-16T12:25:45.024Z,25.10
2023-09-16T12:28:12.836Z,25.20
2023-09-16T12:30:44.152Z,25.30
2023-09-16T12:33:11.613Z,25.40
2023-09-16T12:35:39.705Z,25.50
2023-09-16T12:38:07.248Z,25.60
2023-09-16T12:40:35.176Z,25.50
2023-09-16T12:43:04.778Z,25.60
2023-09-16T12:45:32.901Z,25.40
2023-09-16T12:47:59.998Z,25.50
2023-09-16T12:50:27.603Z,25.60
2023-09-16T12:52:55.197Z,25.60
2023-09-16T12:55:26.526Z,25.60
2023-09-16T12:57:54.562Z,25.60
2023-09-16T13:00:23.333Z,25.50
2023-09-16T13:02:51.549Z,25.50
2023-09-16T13:05:20.577Z,25.50
2023-09-16T13:07:51.037Z,25.50
2023-09-16T13:10:20.954Z,25.60
2023-09-16T13:12:49.374Z,25.60
2023-09-16T13:15:26.103Z,25.80
2023-09-16T13:18:01.032Z,25.90
2023-09-16T13:20:37.522Z,25.80
2023-09-16T13:23:05.107Z,25.80
2023-09-16T13:25:39.208Z,25.80
2023-09-16T13:28:16.843Z,25.70
2023-09-16T13:30:56.781Z,25.80
2023-09-16T13:34:05.038Z,25.70
2023-09-16T13:36:33.944Z,25.50
2023-09-16T13:39:02.138Z,25.60
2023-09-16T13:41:28.874Z,25.60
2023-09-16T13:43:56.379Z,25.80
2023-09-16T13:46:25.656Z,25.70
2023-09-16T13:48:53.197Z,25.80
2023-09-16T13:51:20.179Z,25.90
2023-09-16T13:53:46.945Z,25.90
2023-09-16T13:56:14.598Z,25.70
2023-09-16T13:58:42.299Z,25.70
2023-09-16T14:01:09.176Z,25.70
2023-09-16T14:03:36.114Z,25.70
2023-09-16T14:06:03.058Z,25.80
2023-09-16T14:08:29.763Z,25.80
2023-09-16T14:10:56.600Z,25.70
2023-09-16T14:13:23.440Z,25.60
2023-09-16T14:15:50.268Z,25.60
2023-09-16T14:18:17.113Z,25.70
2023-09-16T14:20:43.848Z,25.60
2023-09-16T14:23:10.560Z,25.60
2023-09-16T14:25:37.317Z,25.70
2023-09-16T14:28:06.206Z,25.70
2023-09-16T14:30:33.349Z,25.80
2023-09-16T14:33:00.749Z,25.60
2023-09-16T14:35:32.932Z,25.50
2023-09-16T14:37:59.897Z,25.50
2023-09-16T14:40:26.700Z,25.50
2023-09-16T14:42:53.463Z,25.50
2023-09-16T14:45:20.233Z,25.60
2023-09-16T14:47:47.019Z,25.50
2023-09-16T14:50:13.831Z,25.50
2023-09-16T14:52:41.821Z,25.50
2023-09-16T14:55:11.162Z,25.50
2023-09-16T14:57:38.811Z,25.60
2023-09-16T15:00:09.712Z,25.60
2023-09-16T15:02:37.369Z,25.60
2023-09-16T15:05:04.418Z,25.60
2023-09-16T15:07:31.187Z,25.50
2023-09-16T15:09:57.956Z,25.50
2023-09-16T15:12:24.781Z,25.50
2023-09-16T15:14:52.644Z,25.60
2023-09-16T15:17:19.532Z,25.60
2023-09-16T15:19:46.265Z,25.60
2023-09-16T15:22:13.272Z,25.60
2023-09-16T15:24:40.585Z,25.60
2023-09-16T15:27:07.350Z,25.60
2023-09-16T15:29:34.067Z,25.60
2023-09-16T15:32:29.754Z,25.50
2023-09-16T15:34:47.565Z,25.50
2023-09-16T15:37:15.499Z,25.50
2023-09-16T15:39:42.262Z,25.40
2023-09-16T15:42:08.984Z,25.30
2023-09-16T15:44:35.702Z,25.40
2023-09-16T15:47:02.730Z,25.30
2023-09-16T15:49:30.566Z,25.20
2023-09-16T15:51:57.550Z,25.20
2023-09-16T15:54:26.287Z,25.20
2023-09-16T15:56:53.338Z,25.20
2023-09-16T15:59:20.205Z,25.20
2023-09-16T16:01:47.129Z,25.00
2023-09-16T16:04:14.062Z,25.10
2023-09-16T16:06:41.597Z,25.10
2023-09-16T16:09:10.087Z,25.00
2023-09-16T16:11:36.996Z,25.00
2023-09-16T16:14:06.460Z,25.00
2023-09-16T16:16:34.669Z,25.00
2023-09-16T16:19:01.539Z,25.00
2023-09-16T16:21:28.319Z,24.90
2023-09-16T16:23:55.093Z,24.90
2023-09-16T16:26:21.861Z,24.90
2023-09-16T16:28:48.733Z,24.70
2023-09-16T16:31:15.836Z,24.60
2023-09-16T16:33:42.627Z,24.50
2023-09-16T16:36:09.397Z,24.40
2023-09-16T16:38:36.113Z,24.30
2023-09-16T16:41:04.038Z,24.20
2023-09-16T16:43:30.803Z,24.20
2023-09-16T16:45:57.726Z,24.10
2023-09-16T16:48:24.493Z,23.90
2023-09-16T16:50:51.984Z,23.90
2023-09-16T16:53:18.812Z,23.80
2023-09-16T16:55:45.779Z,23.70
2023-09-16T16:58:12.681Z,23.70
2023-09-16T17:00:39.518Z,23.50
2023-09-16T17:03:06.394Z,23.60
2023-09-16T17:05:33.165Z,23.50
2023-09-16T17:07:59.955Z,23.50
2023-09-16T17:10:26.725Z,23.40
2023-09-16T17:12:53.593Z,23.40
2023-09-16T17:15:20.294Z,23.30
2023-09-16T17:17:49.180Z,23.30
2023-09-16T17:20:17.017Z,23.10
2023-09-16T17:22:43.806Z,23.10
2023-09-16T17:25:10.579Z,23.00
2023-09-16T17:27:40.524Z,23.00
2023-09-16T17:30:09.727Z,23.00
2023-09-16T17:32:37.016Z,22.90
2023-09-16T17:35:06.908Z,22.70
2023-09-16T17:37:34.464Z,22.60
2023-09-16T17:40:01.376Z,22.50
2023-09-16T17:42:28.318Z,22.60
2023-09-16T17:44:55.060Z,22.50
2023-09-16T17:47:22.177Z,22.50
2023-09-16T17:49:49.643Z,22.40
2023-09-16T17:52:17.756Z,22.40
2023-09-16T17:54:46.828Z,22.40
2023-09-16T17:57:13.567Z,22.30
2023-09-16T17:59:40.356Z,22.20
2023-09-16T18:02:10.471Z,22.10
2023-09-16T18:04:37.410Z,22.10
2023-09-16T18:07:04.641Z,22.10
2023-09-16T18:09:31.456Z,22.00
2023-09-16T18:11:58.265Z,21.90
2023-09-16T18:14:24.995Z,21.80
2023-09-16T18:16:52.043Z,21.60
2023-09-16T18:19:18.891Z,21.40
2023-09-16T18:21:45.672Z,21.40
2023-09-16T18:24:12.388Z,21.40
2023-09-16T18:26:39.104Z,21.30
2023-09-16T18:29:05.810Z,21.40
2023-09-16T18:31:32.593Z,21.40
2023-09-16T18:34:00.387Z,21.30
2023-09-16T18:36:28.549Z,21.30
2023-09-16T18:38:55.252Z,21.30
2023-09-16T18:41:21.958Z,21.30
2023-09-16T18:43:50.064Z,21.30
2023-09-16T18:46:17.046Z,21.20
2023-09-16T18:48:43.826Z,21.10
2023-09-16T18:51:10.765Z,21.10
2023-09-16T18:53:37.574Z,21.00
2023-09-16T18:56:04.589Z,20.90
2023-09-16T18:58:31.490Z,20.90
2023-09-16T19:00:58.321Z,20.90
2023-09-16T19:03:25.299Z,20.90
2023-09-16T19:05:52.186Z,20.80
2023-09-16T19:08:18.955Z,20.70
2023-09-16T19:10:47.000Z,20.60
2023-09-16T19:13:14.433Z,20.50
2023-09-16T19:15:41.393Z,20.40
2023-09-16T19:18:08.730Z,20.30
2023-09-16T19:20:36.985Z,20.20
2023-09-16T19:23:04.304Z,20.10
2023-09-16T19:25:31.255Z,20.00
2023-09-16T19:27:58.202Z,19.80
2023-09-16T19:30:25.274Z,19.70
2023-09-16T19:32:54.528Z,19.70
2023-09-16T19:35:22.956Z,19.70
2023-09-16T19:37:49.749Z,19.60
2023-09-16T19:40:16.630Z,19.60
2023-09-16T19:42:43.417Z,19.50
2023-09-16T19:45:10.815Z,19.50
2023-09-16T19:47:37.748Z,19.30
2023-09-16T19:50:05.269Z,19.30
2023-09-16T19:52:32.415Z,19.20
2023-09-16T19:54:59.285Z,19.20
2023-09-16T19:57:26.099Z,19.00
2023-09-16T19:59:52.970Z,18.90
2023-09-16T20:02:19.881Z,18.70
2023-09-16T20:04:51.088Z,18.60
2023-09-16T20:07:18.735Z,18.60
2023-09-16T20:09:46.121Z,18.50
2023-09-16T20:12:12.903Z,18.40
2023-09-16T20:14:39.634Z,18.40
2023-09-16T20:17:06.885Z,18.30
2023-09-16T20:19:34.035Z,18.20
2023-09-16T20:22:01.426Z,18.10
2023-09-16T20:24:31.373Z,18.00
2023-09-16T20:26:58.168Z,17.90
2023-09-16T20:29:24.880Z,17.90
2023-09-16T20:31:51.613Z,17.90
2023-09-16T20:34:18.585Z,17.80
2023-09-16T20:36:45.696Z,17.70
2023-09-16T20:39:12.815Z,17.70
2023-09-16T20:41:39.672Z,17.60
2023-09-16T20:44:06.459Z,17.60
2023-09-16T20:46:33.386Z,17.50
2023-09-16T20:49:00.178Z,17.50
2023-09-16T20:51:26.975Z,17.40
2023-09-16T20:53:53.717Z,17.40
2023-09-16T20:56:20.519Z,17.40
2023-09-16T20:58:47.382Z,17.40
2023-09-16T21:01:14.573Z,17.30
2023-09-16T21:03:42.047Z,17.30
2023-09-16T21:06:09.133Z,17.20
2023-09-16T21:08:35.880Z,17.20
2023-09-16T21:11:03.722Z,17.20
2023-09-16T21:13:30.490Z,17.10
2023-09-16T21:15:57.443Z,17.10
2023-09-16T21:18:24.356Z,17.10
2023-09-16T21:20:51.119Z,17.00
2023-09-16T21:23:17.886Z,16.90
2023-09-16T21:25:44.806Z,16.90
2023-09-16T21:28:11.586Z,16.80
2023-09-16T21:30:38.409Z,16.70
2023-09-16T21:33:05.532Z,16.60
2023-09-16T21:35:32.496Z,16.60
2023-09-16T21:37:59.250Z,16.70
2023-09-16T21:40:26.568Z,16.60
2023-09-16T21:42:54.311Z,16.60
2023-09-16T21:45:21.427Z,16.60
2023-09-16T21:47:48.542Z,16.60
2023-09-16T21:50:15.790Z,16.60
2023-09-16T21:52:42.563Z,16.60
2023-09-16T21:55:09.503Z,16.60
2023-09-16T21:57:36.354Z,16.60
2023-09-16T22:00:05.129Z,16.60
2023-09-16T22:02:32.137Z,16.60
2023-09-16T22:04:58.966Z,16.50
2023-09-16T22:07:25.664Z,16.50
2023-09-16T22:09:52.422Z,16.50
2023-09-16T22:12:19.164Z,16.40
2023-09-16T22:14:47.022Z,16.30
2023-09-16T22:17:13.797Z,16.30
2023-09-16T22:19:40.621Z,16.20
2023-09-16T22:22:07.460Z,16.20
2023-09-16T22:24:34.200Z,16.20
2023-09-16T22:27:01.314Z,16.20
2023-09-16T22:29:28.001Z,16.20
2023-09-16T22:31:54.742Z,16.10
2023-09-16T22:34:21.519Z,16.10
2023-09-16T22:36:48.232Z,16.10
2023-09-16T22:39:14.927Z,16.10
2023-09-16T22:41:41.609Z,16.00
2023-09-16T22:44:08.314Z,16.00
2023-09-16T22:46:37.257Z,16.00
2023-09-16T22:49:04.582Z,16.00
2023-09-16T22:51:31.514Z,15.90
2023-09-16T22:53:58.398Z,15.90
2023-09-16T22:56:25.192Z,15.90
2023-09-16T22:58:51.974Z,15.90
2023-09-16T23:01:19.193Z,15.90
2023-09-16T23:03:46.002Z,15.80
2023-09-16T23:06:12.734Z,15.90
2023-09-16T23:08:39.487Z,15.90
2023-09-16T23:11:06.321Z,15.80
2023-09-16T23:13:33.209Z,15.80
2023-09-16T23:16:00.213Z,15.90
2023-09-16T23:18:27.934Z,15.90
2023-09-16T23:20:58.582Z,15.80
2023-09-16T23:23:26.280Z,15.70
2023-09-16T23:25:54.539Z,15.70
2023-09-16T23:28:21.329Z,15.70
2023-09-16T23:30:48.113Z,15.80
2023-09-16T23:33:15.869Z,15.80
2023-09-16T23:35:42.605Z,15.80
2023-09-16T23:38:09.446Z,15.70
2023-09-16T23:40:36.611Z,15.70
2023-09-16T23:43:04.348Z,15.70
2023-09-16T23:45:31.101Z,15.70
2023-09-16T23:47:57.888Z,15.60
2023-09-16T23:50:24.660Z,15.60
2023-09-16T23:52:51.350Z,15.60
2023-09-16T23:55:18.213Z,15.60
2023-09-16T23:57:44.944Z,15.60
